Hartford, Wisconsin
Current Conditions -  °F | °C
As of 12:55 PM on Monday 20 Oct 2014 (Local Time) from KETB Reporting Station
Overcast Overcast  
Wind Chill: 12°   Ceiling: 4100
Heat Index: 12°   Visibility: 10mi
Dew Point:   Wind: 10mph
Humidity: 67%   Direction: 320°NW
Pressure: 29.87"   Gusts: 16mph
Location:  43.32°N, 88.38°W
Report Text: KETB 201755Z AUTO 32009G14KT 10SM OVC041 12/06 A2987 RMK AO2
Loading
Personal Weather Stations






























Interactive Weather Map
Tropical Storm Tracking
New forecast layout! Learn more

10-Day Weather Forecast

Advertisements
Track Severe Weather on mobile